Time;durP1;ratioP1;P1;durP2;ratioP2;P2;SDS_P1;SDS_P2;PMS_P1;PMS_P2;Temp;Humidity;BMP_temperature;BMP_pressure;BME280_temperature;BME280_humidity;BME280_pressure;Samples;Min_cycle;Max_cycle;Signal;HPM_P1;HPM_P2
2021/11/11 00:02:25;;;;;;;15.18;8.13;;;;;;;;;;4982680;28;20093;-83
2021/11/11 00:04:51;;;;;;;17.42;8.38;;;;;;;;;;4988297;28;20033;-83
2021/11/11 00:07:17;;;;;;;16.88;9.65;;;;;;;;;;4989470;28;20772;-83
2021/11/11 00:09:43;;;;;;;17.60;9.60;;;;;;;;;;4973725;28;20537;-83
2021/11/11 00:12:09;;;;;;;17.50;8.88;;;;;;;;;;4974684;28;20087;-83
2021/11/11 00:14:35;;;;;;;16.65;9.07;;;;;;;;;;4976282;28;20052;-83
2021/11/11 00:17:01;;;;;;;16.90;8.43;;;;;;;;;;4979981;28;20515;-83
2021/11/11 00:19:27;;;;;;;18.38;8.75;;;;;;;;;;4988713;28;20030;-83
2021/11/11 00:21:53;;;;;;;16.80;7.93;;;;;;;;;;4991114;28;20028;-83
2021/11/11 00:24:19;;;;;;;13.30;7.80;;;;;;;;;;4983571;28;20026;-83
2021/11/11 00:26:46;;;;;;;15.60;7.95;;;;;;;;;;4979255;28;20065;-83
2021/11/11 00:29:12;;;;;;;17.13;8.80;;;;;;;;;;4990464;28;20045;-83
2021/11/11 00:31:38;;;;;;;16.15;8.27;;;;;;;;;;4974864;28;20030;-83
2021/11/11 00:34:04;;;;;;;16.85;8.90;;;;;;;;;;4974432;28;20033;-83
2021/11/11 00:36:30;;;;;;;16.15;8.60;;;;;;;;;;4986857;28;20053;-83
2021/11/11 00:38:56;;;;;;;14.95;8.20;;;;;;;;;;4984181;28;20438;-83
2021/11/11 00:41:22;;;;;;;15.55;8.00;;;;;;;;;;4980731;28;20056;-83
2021/11/11 00:43:48;;;;;;;19.42;8.90;;;;;;;;;;4987802;28;20041;-83
2021/11/11 00:46:15;;;;;;;14.20;7.90;;;;;;;;;;4973320;28;20100;-83
2021/11/11 00:48:41;;;;;;;15.75;8.27;;;;;;;;;;4971949;28;20025;-83
2021/11/11 00:51:08;;;;;;;15.50;8.20;;;;;;;;;;4987213;28;20102;-83
2021/11/11 00:53:34;;;;;;;14.38;7.78;;;;;;;;;;4975668;28;20053;-83
2021/11/11 00:56:00;;;;;;;24.05;8.45;;;;;;;;;;4987242;28;20037;-83
2021/11/11 00:58:26;;;;;;;13.35;7.75;;;;;;;;;;4987737;28;20038;-83
2021/11/11 01:00:53;;;;;;;13.60;7.25;;;;;;;;;;4982105;28;20038;-83
2021/11/11 01:03:21;;;;;;;14.10;7.75;;;;;;;;;;4984280;28;20026;-83
2021/11/11 01:05:49;;;;;;;15.18;7.60;;;;;;;;;;4978344;28;20054;-83
2021/11/11 01:08:15;;;;;;;15.23;7.57;;;;;;;;;;4992314;28;20046;-83
2021/11/11 01:10:42;;;;;;;13.32;7.90;;;;;;;;;;4990874;28;20065;-83
2021/11/11 01:13:08;;;;;;;13.07;7.72;;;;;;;;;;4991270;28;20026;-83
2021/11/11 01:15:34;;;;;;;14.02;8.52;;;;;;;;;;4986516;28;20137;-83
2021/11/11 01:18:02;;;;;;;15.35;7.70;;;;;;;;;;4974829;28;20121;-83
2021/11/11 01:20:28;;;;;;;15.13;7.70;;;;;;;;;;4973228;28;20150;-83
2021/11/11 01:22:54;;;;;;;14.40;7.28;;;;;;;;;;4988898;28;20481;-84
2021/11/11 01:25:22;;;;;;;15.35;8.13;;;;;;;;;;4990226;28;20029;-84
2021/11/11 01:27:48;;;;;;;17.58;7.07;;;;;;;;;;4990690;28;20050;-84
2021/11/11 01:30:14;;;;;;;20.63;8.82;;;;;;;;;;4979845;28;20038;-84
2021/11/11 01:32:40;;;;;;;15.77;8.77;;;;;;;;;;4978893;28;20278;-84
2021/11/11 01:35:08;;;;;;;16.35;8.68;;;;;;;;;;4979161;28;20030;-84
2021/11/11 01:37:34;;;;;;;15.32;8.85;;;;;;;;;;4991734;28;20034;-84
2021/11/11 01:40:01;;;;;;;15.52;7.93;;;;;;;;;;4983526;28;20502;-83
2021/11/11 01:42:27;;;;;;;17.48;9.15;;;;;;;;;;4989877;28;20049;-83
2021/11/11 01:44:54;;;;;;;15.90;8.30;;;;;;;;;;4990139;28;20022;-84
2021/11/11 01:47:20;;;;;;;13.80;7.80;;;;;;;;;;4986769;28;20077;-83
2021/11/11 01:49:46;;;;;;;18.52;8.70;;;;;;;;;;4973590;28;20052;-84
2021/11/11 01:52:14;;;;;;;16.85;8.45;;;;;;;;;;4974446;28;20394;-84
2021/11/11 01:54:40;;;;;;;18.00;8.68;;;;;;;;;;4971849;28;20063;-84
2021/11/11 01:57:06;;;;;;;17.20;8.05;;;;;;;;;;4992275;28;20077;-84
2021/11/11 01:59:32;;;;;;;16.95;7.63;;;;;;;;;;4988338;28;20665;-84
2021/11/11 02:01:59;;;;;;;13.85;7.07;;;;;;;;;;4988099;28;20034;-83
2021/11/11 02:04:25;;;;;;;13.23;8.13;;;;;;;;;;4986380;28;20027;-83
2021/11/11 02:06:52;;;;;;;14.52;7.82;;;;;;;;;;4976733;28;20037;-84
2021/11/11 02:09:19;;;;;;;18.40;8.52;;;;;;;;;;4988419;28;20034;-83
2021/11/11 02:11:45;;;;;;;14.05;7.22;;;;;;;;;;4990860;28;20371;-83
2021/11/11 02:14:11;;;;;;;17.70;7.72;;;;;;;;;;4982450;28;20022;-83
2021/11/11 02:16:38;;;;;;;14.68;8.05;;;;;;;;;;4990297;28;20029;-83
2021/11/11 02:19:08;;;;;;;13.10;6.78;;;;;;;;;;4977866;28;20022;-83
2021/11/11 02:21:35;;;;;;;13.43;7.57;;;;;;;;;;4980714;28;20029;-83
2021/11/11 02:24:01;;;;;;;15.70;7.55;;;;;;;;;;4990993;28;20030;-83
2021/11/11 02:26:27;;;;;;;10.95;6.65;;;;;;;;;;4988691;28;20556;-83
2021/11/11 02:28:53;;;;;;;13.38;7.10;;;;;;;;;;4984274;28;20177;-83
2021/11/11 02:31:20;;;;;;;13.27;7.18;;;;;;;;;;4984425;28;20410;-83
2021/11/11 02:33:53;;;;;;;12.80;6.85;;;;;;;;;;4995395;28;20026;-83
2021/11/11 02:36:19;;;;;;;12.35;6.82;;;;;;;;;;4991204;28;20031;-83
2021/11/11 02:38:45;;;;;;;15.45;8.43;;;;;;;;;;4992241;28;20546;-83
2021/11/11 02:41:11;;;;;;;17.92;8.07;;;;;;;;;;4976916;28;20157;-83
2021/11/11 02:43:38;;;;;;;17.42;7.57;;;;;;;;;;4993255;28;20041;-83
2021/11/11 02:46:04;;;;;;;14.98;7.82;;;;;;;;;;4982601;28;20386;-83
2021/11/11 02:48:30;;;;;;;13.07;8.15;;;;;;;;;;4987343;28;20268;-83
2021/11/11 02:50:56;;;;;;;14.95;8.30;;;;;;;;;;4977953;28;20022;-83
2021/11/11 02:53:23;;;;;;;10.77;7.13;;;;;;;;;;4992459;28;20053;-83
2021/11/11 02:55:49;;;;;;;13.98;7.68;;;;;;;;;;4992824;28;20062;-83
2021/11/11 02:58:15;;;;;;;13.95;7.72;;;;;;;;;;4979623;28;20041;-83
2021/11/11 03:00:44;;;;;;;15.00;8.25;;;;;;;;;;4979767;28;20027;-83
2021/11/11 03:03:10;;;;;;;15.90;8.00;;;;;;;;;;4978105;28;20027;-83
2021/11/11 03:05:37;;;;;;;13.98;7.68;;;;;;;;;;4975419;28;20066;-83
2021/11/11 03:08:04;;;;;;;11.00;6.53;;;;;;;;;;4989062;28;20038;-83
2021/11/11 03:10:30;;;;;;;17.70;7.60;;;;;;;;;;4984778;28;20054;-83
2021/11/11 03:12:57;;;;;;;13.30;7.15;;;;;;;;;;4982464;28;20026;-84
2021/11/11 03:15:24;;;;;;;15.95;7.90;;;;;;;;;;4991043;28;20031;-83
2021/11/11 03:17:51;;;;;;;14.48;8.35;;;;;;;;;;4993460;28;20038;-83
2021/11/11 03:20:17;;;;;;;14.23;7.60;;;;;;;;;;4980035;28;20125;-83
2021/11/11 03:22:44;;;;;;;12.00;6.85;;;;;;;;;;4978465;28;20173;-83
2021/11/11 03:25:11;;;;;;;15.20;7.65;;;;;;;;;;4989689;28;20105;-83
2021/11/11 03:27:38;;;;;;;16.73;8.25;;;;;;;;;;4991089;28;20455;-83
2021/11/11 03:30:06;;;;;;;15.00;7.72;;;;;;;;;;4980991;28;20095;-83
2021/11/11 03:32:32;;;;;;;16.00;6.97;;;;;;;;;;4993233;28;20554;-83
2021/11/11 03:34:58;;;;;;;13.93;7.88;;;;;;;;;;4982363;28;20109;-83
2021/11/11 03:37:24;;;;;;;14.05;7.95;;;;;;;;;;4992053;28;20402;-83
2021/11/11 03:39:50;;;;;;;17.38;7.85;;;;;;;;;;4976796;28;20057;-83
2021/11/11 03:42:17;;;;;;;14.40;7.07;;;;;;;;;;4990515;28;20019;-83
2021/11/11 03:44:43;;;;;;;13.60;7.00;;;;;;;;;;4978650;28;20026;-83
2021/11/11 03:47:09;;;;;;;13.63;7.68;;;;;;;;;;4989297;28;20090;-83
2021/11/11 03:49:36;;;;;;;16.70;6.97;;;;;;;;;;4989069;28;20430;-83
2021/11/11 03:52:03;;;;;;;12.90;7.28;;;;;;;;;;4977572;28;20065;-84
2021/11/11 03:54:29;;;;;;;15.25;6.57;;;;;;;;;;4976858;28;20386;-84
2021/11/11 03:56:57;;;;;;;14.02;7.63;;;;;;;;;;4978526;28;20049;-83
2021/11/11 03:59:23;;;;;;;11.93;6.55;;;;;;;;;;4976953;28;20030;-83
2021/11/11 04:01:49;;;;;;;11.00;6.35;;;;;;;;;;4975254;28;20033;-83
2021/11/11 04:04:15;;;;;;;10.95;6.60;;;;;;;;;;4978198;28;20037;-83
2021/11/11 04:06:41;;;;;;;11.88;6.45;;;;;;;;;;4985861;28;20038;-83
2021/11/11 04:09:08;;;;;;;11.85;7.05;;;;;;;;;;4972248;28;20483;-83
2021/11/11 04:11:34;;;;;;;12.82;6.13;;;;;;;;;;4988900;28;20050;-83
2021/11/11 04:14:00;;;;;;;11.20;6.65;;;;;;;;;;4976401;28;20045;-83
2021/11/11 04:16:26;;;;;;;10.85;6.45;;;;;;;;;;4990082;28;20125;-83
2021/11/11 04:18:52;;;;;;;11.23;6.47;;;;;;;;;;4984989;28;20088;-83
2021/11/11 04:21:19;;;;;;;12.82;6.90;;;;;;;;;;4973465;28;20030;-83
2021/11/11 04:23:45;;;;;;;10.60;6.45;;;;;;;;;;4988235;28;20567;-83
2021/11/11 04:28:45;;;;;;;14.25;7.43;;;;;;;;;;4986062;28;20510;-83
2021/11/11 04:31:20;;;;;;;12.85;7.07;;;;;;;;;;4974384;28;20045;-83
2021/11/11 04:33:48;;;;;;;18.27;9.25;;;;;;;;;;4985468;28;20100;-84
2021/11/11 04:44:06;;;;;;;13.60;7.85;;;;;;;;;;4990686;28;20040;-83
2021/11/11 04:46:45;;;;;;;18.42;8.02;;;;;;;;;;4989677;28;20033;-83
2021/11/11 04:52:12;;;;;;;17.13;8.38;;;;;;;;;;4986349;28;20417;-83
2021/11/11 05:05:53;;;;;;;22.40;9.00;;;;;;;;;;4971212;28;20057;-85
2021/11/11 05:08:19;;;;;;;20.17;8.38;;;;;;;;;;4962350;28;20493;-84
2021/11/11 05:10:49;;;;;;;14.73;7.90;;;;;;;;;;4977965;28;20097;-88
2021/11/11 05:13:15;;;;;;;15.55;8.10;;;;;;;;;;4971882;28;20037;-85
2021/11/11 05:15:41;;;;;;;15.68;8.43;;;;;;;;;;4983591;28;20038;-82
2021/11/11 05:18:07;;;;;;;15.45;8.27;;;;;;;;;;4971443;28;20055;-84
2021/11/11 05:20:33;;;;;;;20.42;9.30;;;;;;;;;;4978226;28;20121;-83
2021/11/11 05:22:59;;;;;;;20.73;9.73;;;;;;;;;;4991392;28;20160;-83
2021/11/11 05:25:25;;;;;;;15.15;8.35;;;;;;;;;;4976545;28;20469;-85
2021/11/11 05:27:52;;;;;;;17.02;8.52;;;;;;;;;;4990076;28;20141;-84
2021/11/11 05:30:18;;;;;;;15.38;7.95;;;;;;;;;;4992073;28;20108;-83
2021/11/11 05:32:45;;;;;;;13.40;7.38;;;;;;;;;;4992854;28;20034;-85
2021/11/11 05:35:12;;;;;;;18.35;8.68;;;;;;;;;;4991576;28;20039;-83
2021/11/11 05:37:38;;;;;;;14.45;7.88;;;;;;;;;;4974538;28;20042;-84
2021/11/11 05:40:06;;;;;;;17.13;8.63;;;;;;;;;;4990038;28;20026;-84
2021/11/11 05:42:32;;;;;;;17.08;8.10;;;;;;;;;;4991904;28;20044;-84
2021/11/11 05:44:58;;;;;;;19.23;9.80;;;;;;;;;;4977296;28;20018;-85
2021/11/11 05:47:24;;;;;;;21.35;9.05;;;;;;;;;;4984803;28;20117;-84
2021/11/11 05:49:50;;;;;;;19.80;9.40;;;;;;;;;;4990372;28;20037;-85
2021/11/11 05:52:16;;;;;;;17.33;8.98;;;;;;;;;;4984254;28;20054;-84
2021/11/11 05:54:43;;;;;;;18.63;8.73;;;;;;;;;;4992060;28;20491;-84
2021/11/11 05:57:09;;;;;;;15.55;8.00;;;;;;;;;;4993642;28;20085;-83
2021/11/11 05:59:39;;;;;;;14.77;8.25;;;;;;;;;;4991914;28;20592;-83
2021/11/11 06:02:05;;;;;;;16.23;8.55;;;;;;;;;;4992430;28;20041;-84
2021/11/11 06:04:31;;;;;;;14.85;7.57;;;;;;;;;;4982953;28;20034;-83
2021/11/11 06:06:57;;;;;;;15.10;8.25;;;;;;;;;;4991886;28;20026;-84
2021/11/11 06:09:23;;;;;;;14.90;8.52;;;;;;;;;;4992797;28;20462;-84
2021/11/11 06:11:49;;;;;;;16.95;8.52;;;;;;;;;;4983339;28;20030;-84
2021/11/11 06:14:15;;;;;;;13.93;7.78;;;;;;;;;;4992337;28;20022;-84
2021/11/11 06:16:42;;;;;;;16.58;8.90;;;;;;;;;;4994807;28;20038;-85
2021/11/11 06:19:10;;;;;;;17.08;8.65;;;;;;;;;;4994300;28;20023;-84
2021/11/11 06:21:37;;;;;;;17.67;8.38;;;;;;;;;;4987306;28;20022;-84
2021/11/11 06:24:03;;;;;;;14.60;8.85;;;;;;;;;;4995565;28;20422;-84
2021/11/11 06:26:29;;;;;;;16.58;7.93;;;;;;;;;;4995357;28;20054;-83
2021/11/11 06:28:55;;;;;;;17.65;8.98;;;;;;;;;;4996685;28;20034;-84
2021/11/11 06:31:21;;;;;;;16.35;8.65;;;;;;;;;;4993997;28;20034;-84
2021/11/11 06:33:47;;;;;;;15.15;8.07;;;;;;;;;;4982986;28;20069;-84
2021/11/11 06:36:14;;;;;;;15.23;8.13;;;;;;;;;;4989296;28;20445;-84
2021/11/11 06:38:40;;;;;;;16.02;7.63;;;;;;;;;;4992046;28;20052;-84
2021/11/11 06:41:06;;;;;;;14.93;8.63;;;;;;;;;;4992965;28;20030;-84
2021/11/11 06:43:32;;;;;;;15.25;7.63;;;;;;;;;;4993287;28;20030;-84
2021/11/11 06:45:59;;;;;;;11.10;6.60;;;;;;;;;;4983000;28;20478;-84
2021/11/11 06:48:25;;;;;;;14.50;7.50;;;;;;;;;;4990452;28;20027;-84
2021/11/11 06:50:51;;;;;;;14.77;8.32;;;;;;;;;;4992180;28;20168;-84
2021/11/11 06:53:17;;;;;;;14.35;7.63;;;;;;;;;;4980422;28;20786;-84
2021/11/11 06:55:44;;;;;;;15.95;8.07;;;;;;;;;;4993863;28;20042;-84
2021/11/11 06:58:11;;;;;;;17.98;8.73;;;;;;;;;;4993654;28;20092;-84
2021/11/11 07:00:38;;;;;;;17.75;9.15;;;;;;;;;;4990186;28;20031;-84
2021/11/11 07:03:04;;;;;;;14.05;7.85;;;;;;;;;;4982254;28;20045;-84
2021/11/11 07:05:31;;;;;;;16.58;8.45;;;;;;;;;;4989017;28;20397;-84
2021/11/11 07:07:57;;;;;;;14.82;7.47;;;;;;;;;;4981544;28;20427;-84
2021/11/11 07:10:24;;;;;;;14.57;7.38;;;;;;;;;;4988316;28;20033;-84
2021/11/11 07:12:50;;;;;;;15.70;7.90;;;;;;;;;;4976118;28;20471;-84
2021/11/11 07:15:17;;;;;;;15.52;8.05;;;;;;;;;;4992762;28;21383;-83
2021/11/11 07:17:43;;;;;;;14.63;7.95;;;;;;;;;;4976756;28;20486;-84
2021/11/11 07:20:14;;;;;;;14.88;8.13;;;;;;;;;;4993012;28;20180;-84
2021/11/11 07:22:43;;;;;;;15.52;7.60;;;;;;;;;;4994642;28;20113;-84
2021/11/11 07:25:09;;;;;;;12.63;7.50;;;;;;;;;;4992973;28;20023;-84
2021/11/11 07:27:35;;;;;;;15.68;8.07;;;;;;;;;;4982192;28;20186;-84
2021/11/11 07:30:03;;;;;;;13.98;7.93;;;;;;;;;;4983633;28;20034;-84
2021/11/11 07:32:29;;;;;;;15.23;7.82;;;;;;;;;;4983794;28;20129;-84
2021/11/11 07:34:55;;;;;;;16.05;8.00;;;;;;;;;;4988054;28;20114;-84
2021/11/11 07:37:21;;;;;;;13.40;8.10;;;;;;;;;;4989965;28;20117;-84
2021/11/11 07:39:50;;;;;;;18.38;8.55;;;;;;;;;;4979483;28;20031;-84
2021/11/11 07:42:17;;;;;;;18.00;9.43;;;;;;;;;;4991992;28;20414;-84
2021/11/11 07:44:43;;;;;;;22.15;8.70;;;;;;;;;;4982148;28;20548;-84
2021/11/11 07:47:09;;;;;;;14.93;7.72;;;;;;;;;;4982237;28;20030;-84
2021/11/11 07:49:35;;;;;;;16.92;8.88;;;;;;;;;;4977036;28;20034;-84
2021/11/11 07:52:01;;;;;;;16.00;8.18;;;;;;;;;;4978604;28;20023;-85
2021/11/11 07:54:27;;;;;;;17.17;9.02;;;;;;;;;;4993967;28;20054;-85
2021/11/11 07:56:55;;;;;;;15.27;7.85;;;;;;;;;;4983764;28;20026;-84
2021/11/11 07:59:21;;;;;;;17.98;9.38;;;;;;;;;;4979501;28;20026;-85
2021/11/11 08:01:47;;;;;;;18.48;9.15;;;;;;;;;;4988371;28;20493;-85
2021/11/11 08:04:13;;;;;;;14.93;9.32;;;;;;;;;;4977938;28;20085;-85
2021/11/11 08:06:39;;;;;;;19.33;9.85;;;;;;;;;;4982406;28;20079;-84
2021/11/11 08:09:05;;;;;;;17.70;8.80;;;;;;;;;;4987777;28;20352;-85
2021/11/11 08:11:31;;;;;;;20.05;9.57;;;;;;;;;;4988916;28;20030;-85
2021/11/11 08:13:57;;;;;;;19.50;9.95;;;;;;;;;;4978022;28;20093;-84
2021/11/11 08:16:23;;;;;;;19.30;9.45;;;;;;;;;;4989831;28;20018;-84
2021/11/11 08:18:49;;;;;;;20.42;9.25;;;;;;;;;;4975929;28;20030;-85
2021/11/11 08:21:16;;;;;;;19.20;9.18;;;;;;;;;;4991175;28;20073;-84
2021/11/11 08:23:42;;;;;;;24.80;9.70;;;;;;;;;;4981073;28;20030;-84
2021/11/11 08:26:08;;;;;;;19.63;9.65;;;;;;;;;;4991221;28;20082;-85
2021/11/11 08:28:35;;;;;;;20.10;9.40;;;;;;;;;;4986247;28;20042;-85
2021/11/11 08:31:01;;;;;;;21.02;8.82;;;;;;;;;;4988548;28;20089;-85
2021/11/11 08:33:34;;;;;;;14.90;7.30;;;;;;;;;;5062269;28;20434;-56
2021/11/11 08:36:01;;;;;;;19.17;9.05;;;;;;;;;;5058993;28;20465;-53
2021/11/11 08:38:29;;;;;;;17.45;8.80;;;;;;;;;;5068998;28;20035;-54
2021/11/11 08:40:55;;;;;;;18.52;8.55;;;;;;;;;;5069016;28;20032;-55
2021/11/11 08:43:21;;;;;;;15.27;8.02;;;;;;;;;;5067662;28;20017;-57
2021/11/11 08:45:49;;;;;;;15.02;7.47;;;;;;;;;;5067470;28;20108;-56
2021/11/11 08:48:15;;;;;;;14.90;6.50;;;;;;;;;;5066383;28;20075;-57
2021/11/11 08:50:44;;;;;;;13.98;6.75;;;;;;;;;;5068313;28;20029;-57
2021/11/11 08:53:12;;;;;;;11.60;5.60;;;;;;;;;;5068156;28;20059;-56
2021/11/11 08:55:38;;;;;;;10.13;5.03;;;;;;;;;;5066479;28;20017;-55
2021/11/11 08:58:05;;;;;;;10.60;5.72;;;;;;;;;;5067691;28;20106;-55
2021/11/11 09:00:33;;;;;;;8.02;4.45;;;;;;;;;;5067351;28;20079;-56
2021/11/11 09:03:00;;;;;;;11.52;5.32;;;;;;;;;;5068197;28;20024;-55
2021/11/11 09:05:29;;;;;;;9.90;5.25;;;;;;;;;;5068001;28;20077;-58
2021/11/11 09:07:55;;;;;;;7.53;4.40;;;;;;;;;;5062908;28;20842;-58
2021/11/11 09:10:21;;;;;;;11.27;4.82;;;;;;;;;;5068274;28;20028;-58
2021/11/11 09:12:48;;;;;;;10.07;5.25;;;;;;;;;;5064940;28;20128;-56
2021/11/11 09:15:16;;;;;;;8.68;4.63;;;;;;;;;;5065474;28;20059;-56
2021/11/11 09:17:42;;;;;;;9.45;5.25;;;;;;;;;;5065870;28;20108;-57
2021/11/11 09:20:09;;;;;;;12.02;4.80;;;;;;;;;;5068119;28;20484;-57
2021/11/11 09:22:35;;;;;;;10.32;4.65;;;;;;;;;;5066511;28;20029;-58
2021/11/11 09:25:05;;;;;;;10.93;5.03;;;;;;;;;;5067274;28;20036;-58
2021/11/11 09:27:31;;;;;;;11.02;4.65;;;;;;;;;;5061920;28;20112;-58
2021/11/11 09:29:57;;;;;;;10.68;4.20;;;;;;;;;;5061616;28;20100;-58
2021/11/11 09:32:23;;;;;;;8.20;4.25;;;;;;;;;;5062365;28;20124;-58
2021/11/11 09:34:49;;;;;;;11.75;4.82;;;;;;;;;;5067358;28;20396;-58
2021/11/11 09:37:15;;;;;;;9.45;4.55;;;;;;;;;;5066115;28;20033;-56
2021/11/11 09:39:41;;;;;;;12.15;4.68;;;;;;;;;;5059185;28;20079;-55
2021/11/11 09:42:07;;;;;;;7.05;3.85;;;;;;;;;;5062865;28;20025;-56
2021/11/11 09:44:33;;;;;;;6.63;4.07;;;;;;;;;;5056216;28;20108;-55
2021/11/11 09:46:59;;;;;;;8.60;4.32;;;;;;;;;;5043875;28;20017;-57
2021/11/11 09:49:27;;;;;;;10.15;5.25;;;;;;;;;;5049935;28;20881;-57
2021/11/11 09:51:53;;;;;;;11.25;5.80;;;;;;;;;;5040782;28;20125;-55
2021/11/11 09:58:34;;;;;;;10.18;5.38;;;;;;;;;;5054849;28;20025;-55
2021/11/11 09:59:54;;;;;;;12.75;5.78;;;;;;;;;;5051706;28;20044;-56
2021/11/11 10:02:21;;;;;;;12.68;6.00;;;;;;;;;;5050283;28;20028;-54
2021/11/11 10:04:47;;;;;;;11.13;5.70;;;;;;;;;;5054154;28;20103;-55
2021/11/11 10:07:13;;;;;;;12.75;5.40;;;;;;;;;;5047306;28;20080;-55
2021/11/11 10:09:45;;;;;;;13.57;6.22;;;;;;;;;;5049050;28;20033;-57
2021/11/11 10:12:21;;;;;;;12.10;6.00;;;;;;;;;;5043164;28;20079;-57
2021/11/11 10:14:48;;;;;;;14.90;7.90;;;;;;;;;;5047785;28;20465;-58
2021/11/11 10:17:19;;;;;;;16.00;6.45;;;;;;;;;;5054339;28;20033;-54
2021/11/11 10:19:47;;;;;;;12.85;6.22;;;;;;;;;;5045701;28;20032;-58
2021/11/11 10:22:18;;;;;;;14.57;7.15;;;;;;;;;;5048910;28;20028;-53
2021/11/11 10:25:00;;;;;;;18.23;7.30;;;;;;;;;;5043174;28;20033;-57
2021/11/11 10:27:30;;;;;;;14.82;7.82;;;;;;;;;;5051640;28;20044;-57
2021/11/11 10:30:02;;;;;;;14.88;7.45;;;;;;;;;;5047209;28;20544;-58
2021/11/11 10:32:36;;;;;;;18.48;8.50;;;;;;;;;;5051924;28;20083;-56
2021/11/11 10:35:04;;;;;;;18.42;9.18;;;;;;;;;;5045150;28;20029;-58
2021/11/11 10:37:33;;;;;;;19.90;9.63;;;;;;;;;;5050100;28;20509;-56
2021/11/11 10:40:00;;;;;;;21.27;9.68;;;;;;;;;;5049767;28;20380;-55
2021/11/11 10:42:27;;;;;;;24.48;9.48;;;;;;;;;;5045555;28;20040;-53
2021/11/11 10:44:55;;;;;;;21.20;9.32;;;;;;;;;;5048098;28;20792;-55
2021/11/11 10:47:23;;;;;;;25.52;10.00;;;;;;;;;;5035153;28;20037;-56
2021/11/11 10:49:50;;;;;;;29.38;12.07;;;;;;;;;;5042776;28;20124;-55
2021/11/11 10:52:19;;;;;;;25.38;12.52;;;;;;;;;;5053324;28;20032;-55
2021/11/11 10:55:03;;;;;;;27.63;13.00;;;;;;;;;;5053588;28;20108;-58
2021/11/11 10:57:50;;;;;;;29.60;12.68;;;;;;;;;;5053327;28;20096;-54
2021/11/11 11:00:22;;;;;;;26.52;12.63;;;;;;;;;;5052588;28;20029;-55
2021/11/11 11:02:53;;;;;;;29.10;13.07;;;;;;;;;;5052852;28;20107;-55
2021/11/11 11:05:22;;;;;;;32.45;14.43;;;;;;;;;;5061391;28;20380;-56
2021/11/11 11:07:48;;;;;;;30.13;13.75;;;;;;;;;;5051067;28;20480;-54
2021/11/11 11:10:17;;;;;;;28.67;13.50;;;;;;;;;;5052351;28;20056;-58
2021/11/11 11:12:43;;;;;;;33.53;15.55;;;;;;;;;;5052250;28;20395;-58
2021/11/11 11:15:10;;;;;;;31.10;13.90;;;;;;;;;;5053048;28;20099;-58
2021/11/11 11:17:36;;;;;;;31.00;13.98;;;;;;;;;;5053173;28;20173;-57
2021/11/11 11:20:20;;;;;;;31.88;14.32;;;;;;;;;;5053871;28;20135;-59
2021/11/11 11:22:46;;;;;;;35.25;14.35;;;;;;;;;;5055488;28;20432;-57
2021/11/11 11:25:13;;;;;;;26.20;12.98;;;;;;;;;;5048223;28;20033;-59
2021/11/11 11:27:39;;;;;;;29.90;12.93;;;;;;;;;;5058939;28;20453;-58
2021/11/11 11:30:15;;;;;;;28.70;13.13;;;;;;;;;;5056497;28;20052;-59
2021/11/11 11:32:43;;;;;;;27.00;11.68;;;;;;;;;;5055741;28;20048;-58
2021/11/11 11:35:10;;;;;;;28.90;12.75;;;;;;;;;;5058799;28;20108;-59
2021/11/11 11:37:37;;;;;;;30.08;13.65;;;;;;;;;;5061164;28;20029;-59
2021/11/11 11:40:09;;;;;;;26.15;11.93;;;;;;;;;;5057564;28;20056;-58
2021/11/11 11:42:37;;;;;;;24.98;12.30;;;;;;;;;;5060294;28;20083;-56
2021/11/11 11:45:04;;;;;;;26.70;12.25;;;;;;;;;;5054280;28;20485;-55
2021/11/11 11:47:34;;;;;;;27.70;13.30;;;;;;;;;;5051026;28;20051;-57
2021/11/11 11:50:04;;;;;;;31.00;13.52;;;;;;;;;;5044146;28;20033;-57
2021/11/11 11:52:31;;;;;;;26.33;12.57;;;;;;;;;;5041293;28;20140;-57
2021/11/11 11:57:37;;;;;;;29.10;11.65;;;;;;;;;;5045199;28;20160;-59
2021/11/11 12:00:18;;;;;;;24.70;11.45;;;;;;;;;;5043514;28;20029;-57
2021/11/11 12:03:18;;;;;;;26.60;12.07;;;;;;;;;;5049058;28;20709;-58
2021/11/11 12:05:45;;;;;;;29.02;11.65;;;;;;;;;;5046242;28;20139;-57
2021/11/11 12:08:49;;;;;;;27.38;11.45;;;;;;;;;;5035671;28;20052;-59
2021/11/11 12:11:28;;;;;;;22.45;11.05;;;;;;;;;;5050135;28;20396;-53
2021/11/11 12:28:45;;;;;;;20.33;9.57;;;;;;;;;;5048818;28;20049;-59
2021/11/11 12:39:31;;;;;;;26.25;10.52;;;;;;;;;;5040422;28;20117;-58
2021/11/11 12:41:57;;;;;;;25.40;10.25;;;;;;;;;;5043511;28;20033;-59
2021/11/11 12:44:24;;;;;;;25.52;9.57;;;;;;;;;;5042664;28;20037;-56
2021/11/11 12:46:50;;;;;;;19.00;9.57;;;;;;;;;;5049193;28;20029;-59
2021/11/11 12:49:28;;;;;;;31.23;10.25;;;;;;;;;;5048464;28;20043;-58
2021/11/11 12:52:13;;;;;;;25.75;10.15;;;;;;;;;;5048376;28;20032;-58
2021/11/11 12:54:43;;;;;;;22.60;9.52;;;;;;;;;;5047510;28;20040;-57
2021/11/11 12:57:10;;;;;;;24.20;10.50;;;;;;;;;;5056858;28;20574;-58
2021/11/11 12:59:37;;;;;;;24.63;10.32;;;;;;;;;;5056453;28;20032;-58
2021/11/11 13:02:07;;;;;;;24.60;10.15;;;;;;;;;;5054499;28;20070;-57
2021/11/11 13:04:53;;;;;;;19.77;8.55;;;;;;;;;;5054898;28;20346;-58
2021/11/11 13:07:25;;;;;;;22.55;10.25;;;;;;;;;;5054373;28;20031;-58
2021/11/11 13:10:12;;;;;;;24.30;9.65;;;;;;;;;;5045935;28;20400;-59
2021/11/11 13:12:39;;;;;;;21.30;9.57;;;;;;;;;;5046847;28;20527;-55
2021/11/11 13:15:12;;;;;;;21.33;9.13;;;;;;;;;;5048536;28;20025;-55
2021/11/11 13:17:41;;;;;;;19.05;9.55;;;;;;;;;;5046462;28;20029;-56
2021/11/11 13:20:19;;;;;;;23.23;9.82;;;;;;;;;;5047632;28;20039;-57
2021/11/11 13:23:00;;;;;;;17.30;8.98;;;;;;;;;;5048413;28;20020;-56
2021/11/11 13:59:32;;;;;;;23.70;11.13;;;;;;;;;;5042234;28;20048;-58
2021/11/11 14:04:50;;;;;;;19.52;10.02;;;;;;;;;;5056817;28;20039;-57
2021/11/11 15:15:11;;;;;;;19.58;9.05;;;;;;;;;;5046207;28;20450;-59
2021/11/11 15:17:38;;;;;;;12.63;6.97;;;;;;;;;;5052720;28;20025;-58
2021/11/11 15:20:51;;;;;;;17.15;8.30;;;;;;;;;;5045291;28;20021;-58
2021/11/11 15:46:19;;;;;;;17.50;8.80;;;;;;;;;;5038257;28;20079;-58
2021/11/11 16:21:07;;;;;;;18.90;8.82;;;;;;;;;;5048038;28;20491;-57
2021/11/11 16:26:34;;;;;;;19.05;7.93;;;;;;;;;;5073404;28;20036;-58
2021/11/11 16:29:02;;;;;;;16.25;7.53;;;;;;;;;;5051711;28;20033;-57
2021/11/11 16:31:29;;;;;;;17.15;7.97;;;;;;;;;;5045567;28;20067;-57
2021/11/11 16:33:57;;;;;;;18.92;9.10;;;;;;;;;;5041590;28;20099;-56
2021/11/11 16:36:23;;;;;;;21.75;9.55;;;;;;;;;;5040529;28;20382;-57
2021/11/11 16:38:50;;;;;;;19.38;7.90;;;;;;;;;;5040121;28;20033;-57
2021/11/11 16:41:17;;;;;;;19.35;9.25;;;;;;;;;;5042741;28;20075;-55
2021/11/11 16:43:43;;;;;;;17.27;8.60;;;;;;;;;;5041413;28;20392;-57
2021/11/11 16:46:09;;;;;;;21.65;8.88;;;;;;;;;;5042907;28;20037;-55
2021/11/11 16:48:36;;;;;;;20.08;9.73;;;;;;;;;;5042777;28;20021;-57
2021/11/11 16:51:03;;;;;;;19.23;9.07;;;;;;;;;;5044044;28;20116;-56
2021/11/11 16:53:29;;;;;;;17.35;8.52;;;;;;;;;;5045854;28;20121;-57
2021/11/11 16:55:55;;;;;;;19.05;8.65;;;;;;;;;;5050395;28;20466;-57
2021/11/11 16:58:22;;;;;;;19.25;9.48;;;;;;;;;;5055083;28;20092;-56
2021/11/11 17:00:48;;;;;;;19.90;10.45;;;;;;;;;;5054673;28;20075;-58
2021/11/11 17:03:14;;;;;;;18.45;9.88;;;;;;;;;;5054006;28;20097;-58
2021/11/11 17:05:41;;;;;;;20.52;9.65;;;;;;;;;;5050743;28;20033;-58
2021/11/11 17:08:07;;;;;;;20.20;8.88;;;;;;;;;;5053807;28;20029;-57
2021/11/11 17:10:34;;;;;;;21.98;9.73;;;;;;;;;;5050288;28;20077;-58
2021/11/11 17:13:00;;;;;;;22.65;9.20;;;;;;;;;;5050418;28;20071;-58
2021/11/11 17:15:30;;;;;;;19.83;9.50;;;;;;;;;;5054348;28;20048;-58
2021/11/11 17:17:59;;;;;;;22.63;10.10;;;;;;;;;;5052440;28;20033;-58
2021/11/11 17:20:25;;;;;;;20.80;10.00;;;;;;;;;;5054003;28;20031;-55
2021/11/11 17:22:55;;;;;;;21.70;9.80;;;;;;;;;;5047537;28;20083;-57
2021/11/11 17:30:35;;;;;;;26.40;10.73;;;;;;;;;;5052236;28;20060;-58
2021/11/11 17:33:01;;;;;;;24.50;10.45;;;;;;;;;;5053659;28;20048;-57
2021/11/11 17:35:27;;;;;;;24.38;10.85;;;;;;;;;;5053491;28;20660;-57
2021/11/11 17:37:53;;;;;;;23.55;10.48;;;;;;;;;;5047264;28;20112;-57
2021/11/11 17:40:20;;;;;;;20.45;10.25;;;;;;;;;;5052185;28;20389;-54
2021/11/11 17:42:47;;;;;;;25.25;10.75;;;;;;;;;;5051957;28;20037;-54
2021/11/11 17:45:15;;;;;;;25.27;11.02;;;;;;;;;;5052231;28;20040;-58
2021/11/11 17:47:42;;;;;;;19.23;9.85;;;;;;;;;;5046662;28;20033;-56
2021/11/11 17:50:17;;;;;;;24.98;10.60;;;;;;;;;;5047613;28;20573;-57
2021/11/11 17:52:49;;;;;;;19.90;10.90;;;;;;;;;;5049505;28;20064;-55
2021/11/11 17:55:19;;;;;;;24.15;10.23;;;;;;;;;;5050927;28;20017;-58
2021/11/11 17:57:45;;;;;;;23.42;9.70;;;;;;;;;;5048441;28;20025;-57
2021/11/11 18:00:12;;;;;;;20.90;9.93;;;;;;;;;;5048441;28;20029;-56
2021/11/11 18:02:38;;;;;;;23.63;9.68;;;;;;;;;;5048800;28;20352;-55
2021/11/11 18:05:05;;;;;;;21.02;9.75;;;;;;;;;;5046549;28;20361;-57
2021/11/11 18:07:35;;;;;;;20.15;10.07;;;;;;;;;;5049306;28;20037;-56
2021/11/11 18:10:07;;;;;;;22.27;10.02;;;;;;;;;;5050087;28;20029;-57
2021/11/11 18:12:44;;;;;;;17.55;8.48;;;;;;;;;;5051133;28;20075;-56
2021/11/11 18:15:15;;;;;;;18.15;9.00;;;;;;;;;;5048866;28;20040;-57